sensor_id;sensor_type;location;lat;lon;timestamp;P1;durP1;ratioP1;P2;durP2;ratioP2
45686;SDS011;31399;51.176;7.776;2023-04-24T00:02:10;1.20;;;0.40;;
45686;SDS011;31399;51.176;7.776;2023-04-24T00:04:59;0.40;;;0.20;;
45686;SDS011;31399;51.176;7.776;2023-04-24T00:07:46;0.43;;;0.20;;
45686;SDS011;31399;51.176;7.776;2023-04-24T00:10:28;0.60;;;0.30;;
45686;SDS011;31399;51.176;7.776;2023-04-24T00:13:08;1.25;;;0.30;;
45686;SDS011;31399;51.176;7.776;2023-04-24T00:15:55;0.50;;;0.20;;
45686;SDS011;31399;51.176;7.776;2023-04-24T00:21:18;0.30;;;0.20;;
45686;SDS011;31399;51.176;7.776;2023-04-24T00:24:05;0.45;;;0.20;;
45686;SDS011;31399;51.176;7.776;2023-04-24T00:26:49;0.50;;;0.30;;
45686;SDS011;31399;51.176;7.776;2023-04-24T00:29:31;1.42;;;0.28;;
45686;SDS011;31399;51.176;7.776;2023-04-24T00:40:39;0.73;;;0.40;;
45686;SDS011;31399;51.176;7.776;2023-04-24T00:43:11;1.00;;;0.70;;
45686;SDS011;31399;51.176;7.776;2023-04-24T00:45:47;1.45;;;0.40;;
45686;SDS011;31399;51.176;7.776;2023-04-24T00:48:23;2.15;;;0.30;;
45686;SDS011;31399;51.176;7.776;2023-04-24T00:50:50;0.57;;;0.40;;
45686;SDS011;31399;51.176;7.776;2023-04-24T00:53:18;0.75;;;0.40;;
45686;SDS011;31399;51.176;7.776;2023-04-24T00:56:01;1.10;;;0.50;;
45686;SDS011;31399;51.176;7.776;2023-04-24T00:58:44;0.65;;;0.40;;
45686;SDS011;31399;51.176;7.776;2023-04-24T01:01:13;0.70;;;0.40;;
45686;SDS011;31399;51.176;7.776;2023-04-24T01:03:45;1.25;;;0.40;;
45686;SDS011;31399;51.176;7.776;2023-04-24T01:06:27;0.82;;;0.30;;
45686;SDS011;31399;51.176;7.776;2023-04-24T01:08:59;2.08;;;0.40;;
45686;SDS011;31399;51.176;7.776;2023-04-24T01:11:27;2.30;;;0.30;;
45686;SDS011;31399;51.176;7.776;2023-04-24T01:13:54;1.90;;;0.52;;
45686;SDS011;31399;51.176;7.776;2023-04-24T01:16:35;2.55;;;0.40;;
45686;SDS011;31399;51.176;7.776;2023-04-24T01:19:06;1.50;;;0.45;;
45686;SDS011;31399;51.176;7.776;2023-04-24T01:21:41;6.22;;;0.55;;
45686;SDS011;31399;51.176;7.776;2023-04-24T01:24:12;0.85;;;0.57;;
45686;SDS011;31399;51.176;7.776;2023-04-24T01:26:49;0.43;;;0.30;;
45686;SDS011;31399;51.176;7.776;2023-04-24T01:29:20;0.60;;;0.22;;
45686;SDS011;31399;51.176;7.776;2023-04-24T01:31:49;1.02;;;0.43;;
45686;SDS011;31399;51.176;7.776;2023-04-24T01:34:17;0.68;;;0.28;;
45686;SDS011;31399;51.176;7.776;2023-04-24T01:36:58;0.60;;;0.30;;
45686;SDS011;31399;51.176;7.776;2023-04-24T01:39:36;1.25;;;0.40;;
45686;SDS011;31399;51.176;7.776;2023-04-24T01:42:06;0.63;;;0.30;;
45686;SDS011;31399;51.176;7.776;2023-04-24T01:44:34;0.70;;;0.30;;
45686;SDS011;31399;51.176;7.776;2023-04-24T01:47:02;0.40;;;0.40;;
45686;SDS011;31399;51.176;7.776;2023-04-24T01:49:40;1.75;;;0.60;;
45686;SDS011;31399;51.176;7.776;2023-04-24T01:52:10;0.82;;;0.40;;
45686;SDS011;31399;51.176;7.776;2023-04-24T01:54:37;1.05;;;0.50;;
45686;SDS011;31399;51.176;7.776;2023-04-24T01:57:04;0.60;;;0.30;;
45686;SDS011;31399;51.176;7.776;2023-04-24T01:59:31;0.40;;;0.30;;
45686;SDS011;31399;51.176;7.776;2023-04-24T02:02:00;0.80;;;0.40;;
45686;SDS011;31399;51.176;7.776;2023-04-24T02:04:27;0.63;;;0.35;;
45686;SDS011;31399;51.176;7.776;2023-04-24T02:06:54;0.68;;;0.55;;
45686;SDS011;31399;51.176;7.776;2023-04-24T02:09:20;0.52;;;0.30;;
45686;SDS011;31399;51.176;7.776;2023-04-24T02:11:47;0.60;;;0.47;;
45686;SDS011;31399;51.176;7.776;2023-04-24T02:14:14;1.05;;;0.50;;
45686;SDS011;31399;51.176;7.776;2023-04-24T02:16:41;1.15;;;0.50;;
45686;SDS011;31399;51.176;7.776;2023-04-24T02:19:08;1.33;;;0.55;;
45686;SDS011;31399;51.176;7.776;2023-04-24T02:21:35;1.33;;;0.60;;
45686;SDS011;31399;51.176;7.776;2023-04-24T02:24:02;1.55;;;0.57;;
45686;SDS011;31399;51.176;7.776;2023-04-24T02:26:29;1.20;;;0.90;;
45686;SDS011;31399;51.176;7.776;2023-04-24T02:28:57;2.00;;;0.80;;
45686;SDS011;31399;51.176;7.776;2023-04-24T02:31:24;2.10;;;1.27;;
45686;SDS011;31399;51.176;7.776;2023-04-24T02:33:51;1.38;;;1.10;;
45686;SDS011;31399;51.176;7.776;2023-04-24T02:36:18;5.05;;;1.40;;
45686;SDS011;31399;51.176;7.776;2023-04-24T02:38:44;2.65;;;1.88;;
45686;SDS011;31399;51.176;7.776;2023-04-24T02:41:11;3.67;;;2.30;;
45686;SDS011;31399;51.176;7.776;2023-04-24T02:43:38;4.55;;;2.70;;
45686;SDS011;31399;51.176;7.776;2023-04-24T02:46:04;3.97;;;2.35;;
45686;SDS011;31399;51.176;7.776;2023-04-24T02:48:31;7.18;;;2.70;;
45686;SDS011;31399;51.176;7.776;2023-04-24T02:50:58;3.05;;;2.72;;
45686;SDS011;31399;51.176;7.776;2023-04-24T02:53:25;3.80;;;2.45;;
45686;SDS011;31399;51.176;7.776;2023-04-24T02:55:51;4.88;;;2.03;;
45686;SDS011;31399;51.176;7.776;2023-04-24T02:58:18;3.83;;;2.88;;
45686;SDS011;31399;51.176;7.776;2023-04-24T03:00:46;3.47;;;2.88;;
45686;SDS011;31399;51.176;7.776;2023-04-24T03:03:13;5.75;;;3.08;;
45686;SDS011;31399;51.176;7.776;2023-04-24T03:05:41;5.78;;;3.58;;
45686;SDS011;31399;51.176;7.776;2023-04-24T03:08:08;4.72;;;3.17;;
45686;SDS011;31399;51.176;7.776;2023-04-24T03:10:35;6.00;;;3.67;;
45686;SDS011;31399;51.176;7.776;2023-04-24T03:13:01;6.18;;;3.20;;
45686;SDS011;31399;51.176;7.776;2023-04-24T03:15:28;5.10;;;3.28;;
45686;SDS011;31399;51.176;7.776;2023-04-24T03:17:57;5.10;;;3.30;;
45686;SDS011;31399;51.176;7.776;2023-04-24T03:20:24;6.82;;;3.22;;
45686;SDS011;31399;51.176;7.776;2023-04-24T03:22:50;4.40;;;3.10;;
45686;SDS011;31399;51.176;7.776;2023-04-24T03:25:17;4.75;;;3.55;;
45686;SDS011;31399;51.176;7.776;2023-04-24T03:27:47;6.53;;;3.80;;
45686;SDS011;31399;51.176;7.776;2023-04-24T03:30:14;6.72;;;3.85;;
45686;SDS011;31399;51.176;7.776;2023-04-24T03:32:40;8.50;;;3.25;;
45686;SDS011;31399;51.176;7.776;2023-04-24T03:35:07;4.55;;;3.38;;
45686;SDS011;31399;51.176;7.776;2023-04-24T03:37:34;7.28;;;3.38;;
45686;SDS011;31399;51.176;7.776;2023-04-24T03:40:01;5.38;;;3.67;;
45686;SDS011;31399;51.176;7.776;2023-04-24T03:42:29;9.95;;;4.85;;
45686;SDS011;31399;51.176;7.776;2023-04-24T03:44:55;6.80;;;4.60;;
45686;SDS011;31399;51.176;7.776;2023-04-24T03:47:22;7.32;;;4.13;;
45686;SDS011;31399;51.176;7.776;2023-04-24T03:49:48;7.75;;;4.80;;
45686;SDS011;31399;51.176;7.776;2023-04-24T03:52:15;8.23;;;4.82;;
45686;SDS011;31399;51.176;7.776;2023-04-24T03:54:42;6.35;;;4.65;;
45686;SDS011;31399;51.176;7.776;2023-04-24T03:57:08;11.07;;;5.38;;
45686;SDS011;31399;51.176;7.776;2023-04-24T03:59:35;9.13;;;4.85;;
45686;SDS011;31399;51.176;7.776;2023-04-24T04:02:02;12.20;;;5.72;;
45686;SDS011;31399;51.176;7.776;2023-04-24T04:04:28;7.65;;;4.93;;
45686;SDS011;31399;51.176;7.776;2023-04-24T04:06:55;9.32;;;5.65;;
45686;SDS011;31399;51.176;7.776;2023-04-24T04:09:22;10.80;;;5.85;;
45686;SDS011;31399;51.176;7.776;2023-04-24T04:11:48;9.73;;;5.18;;
45686;SDS011;31399;51.176;7.776;2023-04-24T04:14:15;10.73;;;5.93;;
45686;SDS011;31399;51.176;7.776;2023-04-24T04:16:42;10.65;;;5.80;;
45686;SDS011;31399;51.176;7.776;2023-04-24T04:19:09;15.93;;;6.90;;
45686;SDS011;31399;51.176;7.776;2023-04-24T04:21:36;11.68;;;5.70;;
45686;SDS011;31399;51.176;7.776;2023-04-24T04:24:03;11.35;;;5.70;;
45686;SDS011;31399;51.176;7.776;2023-04-24T04:26:31;10.10;;;6.15;;
45686;SDS011;31399;51.176;7.776;2023-04-24T04:28:59;11.77;;;5.95;;
45686;SDS011;31399;51.176;7.776;2023-04-24T04:31:26;14.38;;;6.85;;
45686;SDS011;31399;51.176;7.776;2023-04-24T04:33:53;11.15;;;5.82;;
45686;SDS011;31399;51.176;7.776;2023-04-24T04:36:20;9.02;;;5.47;;
45686;SDS011;31399;51.176;7.776;2023-04-24T04:38:46;13.13;;;6.20;;
45686;SDS011;31399;51.176;7.776;2023-04-24T04:41:13;11.23;;;6.47;;
45686;SDS011;31399;51.176;7.776;2023-04-24T04:43:40;9.93;;;6.20;;
45686;SDS011;31399;51.176;7.776;2023-04-24T04:46:06;10.27;;;6.65;;
45686;SDS011;31399;51.176;7.776;2023-04-24T04:48:34;12.23;;;6.43;;
45686;SDS011;31399;51.176;7.776;2023-04-24T04:51:01;11.20;;;5.78;;
45686;SDS011;31399;51.176;7.776;2023-04-24T04:53:28;12.73;;;6.43;;
45686;SDS011;31399;51.176;7.776;2023-04-24T04:55:55;10.18;;;5.47;;
45686;SDS011;31399;51.176;7.776;2023-04-24T04:58:22;11.85;;;5.78;;
45686;SDS011;31399;51.176;7.776;2023-04-24T05:00:48;11.20;;;6.20;;
45686;SDS011;31399;51.176;7.776;2023-04-24T05:03:15;8.70;;;5.50;;
45686;SDS011;31399;51.176;7.776;2023-04-24T05:05:46;12.27;;;6.00;;
45686;SDS011;31399;51.176;7.776;2023-04-24T05:08:13;11.63;;;5.40;;
45686;SDS011;31399;51.176;7.776;2023-04-24T05:10:43;8.25;;;5.63;;
45686;SDS011;31399;51.176;7.776;2023-04-24T05:13:10;7.28;;;5.35;;
45686;SDS011;31399;51.176;7.776;2023-04-24T05:15:39;9.40;;;6.10;;
45686;SDS011;31399;51.176;7.776;2023-04-24T05:18:06;10.05;;;5.45;;
45686;SDS011;31399;51.176;7.776;2023-04-24T05:20:33;9.27;;;5.40;;
45686;SDS011;31399;51.176;7.776;2023-04-24T05:22:59;8.38;;;4.72;;
45686;SDS011;31399;51.176;7.776;2023-04-24T05:25:26;10.02;;;5.45;;
45686;SDS011;31399;51.176;7.776;2023-04-24T05:27:53;9.23;;;4.78;;
45686;SDS011;31399;51.176;7.776;2023-04-24T05:30:20;7.90;;;4.75;;
45686;SDS011;31399;51.176;7.776;2023-04-24T05:32:47;10.13;;;5.40;;
45686;SDS011;31399;51.176;7.776;2023-04-24T05:35:14;8.13;;;5.05;;
45686;SDS011;31399;51.176;7.776;2023-04-24T05:37:41;9.63;;;5.57;;
45686;SDS011;31399;51.176;7.776;2023-04-24T05:40:08;10.88;;;5.30;;
45686;SDS011;31399;51.176;7.776;2023-04-24T05:42:50;9.02;;;5.15;;
45686;SDS011;31399;51.176;7.776;2023-04-24T05:45:25;10.57;;;5.25;;
45686;SDS011;31399;51.176;7.776;2023-04-24T05:47:53;10.95;;;5.60;;
45686;SDS011;31399;51.176;7.776;2023-04-24T05:50:23;7.75;;;4.97;;
45686;SDS011;31399;51.176;7.776;2023-04-24T05:52:53;12.57;;;5.35;;
45686;SDS011;31399;51.176;7.776;2023-04-24T05:55:31;11.50;;;4.63;;
45686;SDS011;31399;51.176;7.776;2023-04-24T05:57:58;10.32;;;5.40;;
45686;SDS011;31399;51.176;7.776;2023-04-24T06:00:26;11.57;;;5.50;;
45686;SDS011;31399;51.176;7.776;2023-04-24T06:02:53;7.30;;;4.72;;
45686;SDS011;31399;51.176;7.776;2023-04-24T06:05:22;10.55;;;5.32;;
45686;SDS011;31399;51.176;7.776;2023-04-24T06:07:49;9.40;;;5.05;;
45686;SDS011;31399;51.176;7.776;2023-04-24T06:10:17;8.35;;;5.38;;
45686;SDS011;31399;51.176;7.776;2023-04-24T06:12:44;8.23;;;5.15;;
45686;SDS011;31399;51.176;7.776;2023-04-24T06:15:11;9.13;;;5.25;;
45686;SDS011;31399;51.176;7.776;2023-04-24T06:17:39;9.77;;;5.90;;
45686;SDS011;31399;51.176;7.776;2023-04-24T06:20:05;8.65;;;4.68;;
45686;SDS011;31399;51.176;7.776;2023-04-24T06:22:34;10.18;;;5.20;;
45686;SDS011;31399;51.176;7.776;2023-04-24T06:25:01;7.32;;;4.95;;
45686;SDS011;31399;51.176;7.776;2023-04-24T06:27:28;6.50;;;4.45;;
45686;SDS011;31399;51.176;7.776;2023-04-24T06:29:55;9.00;;;5.95;;
45686;SDS011;31399;51.176;7.776;2023-04-24T06:32:22;6.60;;;4.45;;
45686;SDS011;31399;51.176;7.776;2023-04-24T06:34:51;10.23;;;4.22;;
45686;SDS011;31399;51.176;7.776;2023-04-24T06:37:19;10.77;;;5.05;;
45686;SDS011;31399;51.176;7.776;2023-04-24T06:39:47;9.02;;;5.05;;
45686;SDS011;31399;51.176;7.776;2023-04-24T06:42:13;10.00;;;6.35;;
45686;SDS011;31399;51.176;7.776;2023-04-24T06:44:40;7.97;;;4.70;;
45686;SDS011;31399;51.176;7.776;2023-04-24T06:47:07;8.77;;;5.38;;
45686;SDS011;31399;51.176;7.776;2023-04-24T06:49:35;7.32;;;4.43;;
45686;SDS011;31399;51.176;7.776;2023-04-24T06:52:06;8.13;;;4.88;;
45686;SDS011;31399;51.176;7.776;2023-04-24T06:54:33;10.98;;;4.63;;
45686;SDS011;31399;51.176;7.776;2023-04-24T06:57:00;7.82;;;4.68;;
45686;SDS011;31399;51.176;7.776;2023-04-24T06:59:29;9.73;;;5.10;;
45686;SDS011;31399;51.176;7.776;2023-04-24T07:01:56;11.18;;;4.65;;
45686;SDS011;31399;51.176;7.776;2023-04-24T07:04:23;8.38;;;5.07;;
45686;SDS011;31399;51.176;7.776;2023-04-24T07:06:51;8.75;;;5.00;;
45686;SDS011;31399;51.176;7.776;2023-04-24T07:09:20;7.18;;;5.07;;
45686;SDS011;31399;51.176;7.776;2023-04-24T07:11:48;10.50;;;4.93;;
45686;SDS011;31399;51.176;7.776;2023-04-24T07:14:15;9.10;;;4.80;;
45686;SDS011;31399;51.176;7.776;2023-04-24T07:16:42;7.32;;;4.10;;
45686;SDS011;31399;51.176;7.776;2023-04-24T07:19:09;9.50;;;5.13;;
45686;SDS011;31399;51.176;7.776;2023-04-24T07:21:36;7.72;;;4.65;;
45686;SDS011;31399;51.176;7.776;2023-04-24T07:24:02;12.00;;;4.85;;
45686;SDS011;31399;51.176;7.776;2023-04-24T07:26:29;5.88;;;4.25;;
45686;SDS011;31399;51.176;7.776;2023-04-24T07:28:56;7.28;;;4.07;;
45686;SDS011;31399;51.176;7.776;2023-04-24T07:31:23;8.98;;;3.78;;
45686;SDS011;31399;51.176;7.776;2023-04-24T07:33:50;6.55;;;4.03;;
45686;SDS011;31399;51.176;7.776;2023-04-24T07:36:16;7.35;;;4.25;;
45686;SDS011;31399;51.176;7.776;2023-04-24T07:38:45;5.15;;;3.08;;
45686;SDS011;31399;51.176;7.776;2023-04-24T07:41:12;4.45;;;3.33;;
45686;SDS011;31399;51.176;7.776;2023-04-24T07:43:40;4.35;;;3.08;;
45686;SDS011;31399;51.176;7.776;2023-04-24T07:46:07;5.78;;;2.95;;
45686;SDS011;31399;51.176;7.776;2023-04-24T07:48:34;4.13;;;2.60;;
45686;SDS011;31399;51.176;7.776;2023-04-24T07:51:01;7.05;;;2.40;;
45686;SDS011;31399;51.176;7.776;2023-04-24T07:53:27;2.65;;;1.95;;
45686;SDS011;31399;51.176;7.776;2023-04-24T07:55:55;5.65;;;2.05;;
45686;SDS011;31399;51.176;7.776;2023-04-24T07:58:22;3.15;;;1.98;;
45686;SDS011;31399;51.176;7.776;2023-04-24T08:00:49;2.72;;;2.17;;
45686;SDS011;31399;51.176;7.776;2023-04-24T08:03:15;2.95;;;1.55;;
45686;SDS011;31399;51.176;7.776;2023-04-24T08:05:45;1.95;;;1.33;;
45686;SDS011;31399;51.176;7.776;2023-04-24T08:08:12;1.67;;;0.90;;
45686;SDS011;31399;51.176;7.776;2023-04-24T08:10:39;1.95;;;0.73;;
45686;SDS011;31399;51.176;7.776;2023-04-24T08:13:06;3.28;;;1.20;;
45686;SDS011;31399;51.176;7.776;2023-04-24T08:15:32;2.15;;;1.00;;
45686;SDS011;31399;51.176;7.776;2023-04-24T08:17:59;2.95;;;1.30;;
45686;SDS011;31399;51.176;7.776;2023-04-24T08:20:26;2.10;;;1.20;;
45686;SDS011;31399;51.176;7.776;2023-04-24T08:22:52;2.13;;;1.02;;
45686;SDS011;31399;51.176;7.776;2023-04-24T08:25:20;1.35;;;1.13;;
45686;SDS011;31399;51.176;7.776;2023-04-24T08:27:49;1.48;;;0.93;;
45686;SDS011;31399;51.176;7.776;2023-04-24T08:30:15;3.30;;;0.82;;
45686;SDS011;31399;51.176;7.776;2023-04-24T08:32:42;1.75;;;1.08;;
45686;SDS011;31399;51.176;7.776;2023-04-24T08:35:09;0.98;;;0.60;;
45686;SDS011;31399;51.176;7.776;2023-04-24T08:37:36;1.88;;;0.90;;
45686;SDS011;31399;51.176;7.776;2023-04-24T08:40:22;1.17;;;0.35;;
45686;SDS011;31399;51.176;7.776;2023-04-24T08:42:55;0.68;;;0.20;;
45686;SDS011;31399;51.176;7.776;2023-04-24T08:45:24;0.65;;;0.30;;
45686;SDS011;31399;51.176;7.776;2023-04-24T08:47:51;0.35;;;0.20;;
45686;SDS011;31399;51.176;7.776;2023-04-24T08:50:20;5.18;;;0.20;;
45686;SDS011;31399;51.176;7.776;2023-04-24T08:52:48;0.50;;;0.22;;
45686;SDS011;31399;51.176;7.776;2023-04-24T08:55:16;0.40;;;0.22;;
45686;SDS011;31399;51.176;7.776;2023-04-24T08:57:45;0.43;;;0.20;;
45686;SDS011;31399;51.176;7.776;2023-04-24T09:00:12;0.40;;;0.20;;
45686;SDS011;31399;51.176;7.776;2023-04-24T09:02:41;0.28;;;0.10;;
45686;SDS011;31399;51.176;7.776;2023-04-24T09:05:09;1.77;;;0.10;;
45686;SDS011;31399;51.176;7.776;2023-04-24T09:07:36;0.60;;;0.17;;
45686;SDS011;31399;51.176;7.776;2023-04-24T09:10:06;0.20;;;0.10;;
45686;SDS011;31399;51.176;7.776;2023-04-24T09:12:34;1.20;;;0.10;;
45686;SDS011;31399;51.176;7.776;2023-04-24T09:15:01;0.68;;;0.10;;
45686;SDS011;31399;51.176;7.776;2023-04-24T09:17:33;0.30;;;0.10;;
45686;SDS011;31399;51.176;7.776;2023-04-24T09:20:00;0.60;;;0.20;;
45686;SDS011;31399;51.176;7.776;2023-04-24T09:22:30;0.17;;;0.10;;
45686;SDS011;31399;51.176;7.776;2023-04-24T09:25:04;1.02;;;0.10;;
45686;SDS011;31399;51.176;7.776;2023-04-24T09:27:33;0.20;;;0.20;;
45686;SDS011;31399;51.176;7.776;2023-04-24T09:30:00;0.40;;;0.20;;
45686;SDS011;31399;51.176;7.776;2023-04-24T09:32:27;0.40;;;0.22;;
45686;SDS011;31399;51.176;7.776;2023-04-24T09:35:06;1.02;;;0.32;;
45686;SDS011;31399;51.176;7.776;2023-04-24T09:37:46;0.50;;;0.30;;
45686;SDS011;31399;51.176;7.776;2023-04-24T09:42:43;0.50;;;0.30;;
45686;SDS011;31399;51.176;7.776;2023-04-24T09:45:17;0.63;;;0.45;;
45686;SDS011;31399;51.176;7.776;2023-04-24T09:47:44;0.50;;;0.35;;
45686;SDS011;31399;51.176;7.776;2023-04-24T09:53:12;1.77;;;0.60;;
45686;SDS011;31399;51.176;7.776;2023-04-24T09:55:32;1.02;;;0.70;;
45686;SDS011;31399;51.176;7.776;2023-04-24T09:57:59;1.30;;;0.70;;
45686;SDS011;31399;51.176;7.776;2023-04-24T10:00:28;3.45;;;0.90;;
45686;SDS011;31399;51.176;7.776;2023-04-24T10:02:56;1.55;;;0.95;;
45686;SDS011;31399;51.176;7.776;2023-04-24T10:05:28;0.90;;;0.57;;
45686;SDS011;31399;51.176;7.776;2023-04-24T10:07:56;0.90;;;0.52;;
45686;SDS011;31399;51.176;7.776;2023-04-24T10:10:23;0.93;;;0.65;;
45686;SDS011;31399;51.176;7.776;2023-04-24T10:12:50;1.63;;;0.70;;
45686;SDS011;31399;51.176;7.776;2023-04-24T10:15:17;0.80;;;0.45;;
45686;SDS011;31399;51.176;7.776;2023-04-24T10:17:50;0.90;;;0.40;;
45686;SDS011;31399;51.176;7.776;2023-04-24T10:20:21;0.75;;;0.38;;
45686;SDS011;31399;51.176;7.776;2023-04-24T10:22:50;0.82;;;0.47;;
45686;SDS011;31399;51.176;7.776;2023-04-24T10:25:22;1.90;;;0.68;;
45686;SDS011;31399;51.176;7.776;2023-04-24T10:27:51;1.00;;;0.43;;
45686;SDS011;31399;51.176;7.776;2023-04-24T10:30:19;1.17;;;0.35;;
45686;SDS011;31399;51.176;7.776;2023-04-24T10:32:46;1.60;;;0.40;;
45686;SDS011;31399;51.176;7.776;2023-04-24T10:35:13;0.70;;;0.45;;
45686;SDS011;31399;51.176;7.776;2023-04-24T10:37:45;0.50;;;0.40;;
45686;SDS011;31399;51.176;7.776;2023-04-24T10:40:18;0.80;;;0.40;;
45686;SDS011;31399;51.176;7.776;2023-04-24T10:42:51;0.93;;;0.32;;
45686;SDS011;31399;51.176;7.776;2023-04-24T10:45:22;1.67;;;0.75;;
45686;SDS011;31399;51.176;7.776;2023-04-24T10:50:46;2.25;;;0.40;;
45686;SDS011;31399;51.176;7.776;2023-04-24T10:53:15;1.50;;;0.43;;
45686;SDS011;31399;51.176;7.776;2023-04-24T10:56:03;3.70;;;0.40;;
45686;SDS011;31399;51.176;7.776;2023-04-24T11:03:54;1.73;;;0.52;;
45686;SDS011;31399;51.176;7.776;2023-04-24T11:06:32;1.00;;;0.68;;
45686;SDS011;31399;51.176;7.776;2023-04-24T11:09:03;2.55;;;0.60;;
45686;SDS011;31399;51.176;7.776;2023-04-24T11:11:36;1.33;;;0.75;;
45686;SDS011;31399;51.176;7.776;2023-04-24T11:14:07;1.40;;;0.50;;
45686;SDS011;31399;51.176;7.776;2023-04-24T11:16:35;1.48;;;0.70;;
45686;SDS011;31399;51.176;7.776;2023-04-24T11:19:06;1.42;;;0.90;;
45686;SDS011;31399;51.176;7.776;2023-04-24T11:21:43;3.67;;;1.15;;
45686;SDS011;31399;51.176;7.776;2023-04-24T11:29:40;2.25;;;1.20;;
45686;SDS011;31399;51.176;7.776;2023-04-24T11:32:17;3.35;;;1.10;;
45686;SDS011;31399;51.176;7.776;2023-04-24T11:37:41;3.03;;;1.02;;
45686;SDS011;31399;51.176;7.776;2023-04-24T11:40:10;1.80;;;0.98;;
45686;SDS011;31399;51.176;7.776;2023-04-24T11:42:38;3.03;;;1.42;;
45686;SDS011;31399;51.176;7.776;2023-04-24T11:45:28;4.57;;;1.38;;
45686;SDS011;31399;51.176;7.776;2023-04-24T11:47:54;4.30;;;1.35;;
45686;SDS011;31399;51.176;7.776;2023-04-24T11:50:21;3.15;;;2.38;;
45686;SDS011;31399;51.176;7.776;2023-04-24T11:52:49;2.42;;;1.60;;
45686;SDS011;31399;51.176;7.776;2023-04-24T11:57:43;9.02;;;1.35;;
45686;SDS011;31399;51.176;7.776;2023-04-24T12:00:18;3.60;;;1.70;;
45686;SDS011;31399;51.176;7.776;2023-04-24T12:02:45;5.78;;;1.80;;
45686;SDS011;31399;51.176;7.776;2023-04-24T12:05:25;3.05;;;1.48;;
45686;SDS011;31399;51.176;7.776;2023-04-24T12:07:53;3.50;;;1.90;;
45686;SDS011;31399;51.176;7.776;2023-04-24T12:10:21;5.80;;;1.92;;
45686;SDS011;31399;51.176;7.776;2023-04-24T12:12:49;3.83;;;2.05;;
45686;SDS011;31399;51.176;7.776;2023-04-24T12:15:18;8.48;;;2.08;;
45686;SDS011;31399;51.176;7.776;2023-04-24T12:17:48;7.70;;;2.45;;
45686;SDS011;31399;51.176;7.776;2023-04-24T12:20:17;7.40;;;3.28;;
45686;SDS011;31399;51.176;7.776;2023-04-24T12:22:54;5.97;;;3.83;;
45686;SDS011;31399;51.176;7.776;2023-04-24T12:25:25;9.25;;;3.35;;
45686;SDS011;31399;51.176;7.776;2023-04-24T12:28:08;9.95;;;2.55;;
45686;SDS011;31399;51.176;7.776;2023-04-24T12:33:07;9.73;;;3.45;;
45686;SDS011;31399;51.176;7.776;2023-04-24T12:35:34;8.75;;;2.90;;
45686;SDS011;31399;51.176;7.776;2023-04-24T12:38:08;10.07;;;2.83;;
45686;SDS011;31399;51.176;7.776;2023-04-24T12:40:36;11.70;;;3.45;;
45686;SDS011;31399;51.176;7.776;2023-04-24T12:43:12;7.95;;;2.95;;
45686;SDS011;31399;51.176;7.776;2023-04-24T12:45:40;12.32;;;3.67;;
45686;SDS011;31399;51.176;7.776;2023-04-24T12:48:07;9.82;;;3.22;;
45686;SDS011;31399;51.176;7.776;2023-04-24T12:50:33;12.88;;;4.03;;
45686;SDS011;31399;51.176;7.776;2023-04-24T12:53:00;4.25;;;3.22;;
45686;SDS011;31399;51.176;7.776;2023-04-24T12:55:27;5.35;;;3.22;;
45686;SDS011;31399;51.176;7.776;2023-04-24T12:57:53;6.72;;;2.60;;
45686;SDS011;31399;51.176;7.776;2023-04-24T13:00:21;12.40;;;2.97;;
45686;SDS011;31399;51.176;7.776;2023-04-24T13:02:48;13.55;;;3.67;;
45686;SDS011;31399;51.176;7.776;2023-04-24T13:05:15;9.40;;;3.03;;
45686;SDS011;31399;51.176;7.776;2023-04-24T13:07:42;7.10;;;2.85;;
45686;SDS011;31399;51.176;7.776;2023-04-24T13:10:08;6.75;;;3.13;;
45686;SDS011;31399;51.176;7.776;2023-04-24T13:12:35;10.45;;;3.58;;
45686;SDS011;31399;51.176;7.776;2023-04-24T13:15:02;12.52;;;3.53;;
45686;SDS011;31399;51.176;7.776;2023-04-24T13:17:29;10.52;;;3.60;;
45686;SDS011;31399;51.176;7.776;2023-04-24T13:19:56;9.57;;;3.70;;
45686;SDS011;31399;51.176;7.776;2023-04-24T13:22:22;7.18;;;2.97;;
45686;SDS011;31399;51.176;7.776;2023-04-24T13:24:49;9.73;;;4.55;;
45686;SDS011;31399;51.176;7.776;2023-04-24T13:27:16;9.20;;;3.83;;
45686;SDS011;31399;51.176;7.776;2023-04-24T13:29:43;6.10;;;3.05;;
45686;SDS011;31399;51.176;7.776;2023-04-24T13:32:11;10.15;;;3.55;;
45686;SDS011;31399;51.176;7.776;2023-04-24T13:34:38;11.52;;;3.38;;
45686;SDS011;31399;51.176;7.776;2023-04-24T13:37:05;13.00;;;3.28;;
45686;SDS011;31399;51.176;7.776;2023-04-24T13:39:32;7.38;;;2.60;;
45686;SDS011;31399;51.176;7.776;2023-04-24T13:41:58;8.55;;;3.22;;
45686;SDS011;31399;51.176;7.776;2023-04-24T13:44:28;6.57;;;3.10;;
45686;SDS011;31399;51.176;7.776;2023-04-24T13:46:55;12.43;;;3.78;;
45686;SDS011;31399;51.176;7.776;2023-04-24T13:49:23;4.60;;;3.08;;
45686;SDS011;31399;51.176;7.776;2023-04-24T13:51:52;9.20;;;3.42;;
45686;SDS011;31399;51.176;7.776;2023-04-24T13:54:19;9.43;;;2.55;;
45686;SDS011;31399;51.176;7.776;2023-04-24T13:56:46;6.13;;;2.65;;
45686;SDS011;31399;51.176;7.776;2023-04-24T13:59:13;12.40;;;2.38;;
45686;SDS011;31399;51.176;7.776;2023-04-24T14:01:39;6.63;;;2.90;;
45686;SDS011;31399;51.176;7.776;2023-04-24T14:04:06;7.40;;;3.45;;
45686;SDS011;31399;51.176;7.776;2023-04-24T14:06:33;8.18;;;2.88;;
45686;SDS011;31399;51.176;7.776;2023-04-24T14:09:00;8.05;;;2.67;;
45686;SDS011;31399;51.176;7.776;2023-04-24T14:11:26;4.20;;;2.63;;
45686;SDS011;31399;51.176;7.776;2023-04-24T14:13:54;8.38;;;2.45;;
45686;SDS011;31399;51.176;7.776;2023-04-24T14:16:22;7.00;;;2.17;;
45686;SDS011;31399;51.176;7.776;2023-04-24T14:18:49;5.03;;;2.60;;
45686;SDS011;31399;51.176;7.776;2023-04-24T14:21:16;6.90;;;2.17;;
45686;SDS011;31399;51.176;7.776;2023-04-24T14:23:43;5.32;;;2.47;;
45686;SDS011;31399;51.176;7.776;2023-04-24T14:26:10;8.32;;;2.28;;
45686;SDS011;31399;51.176;7.776;2023-04-24T14:28:37;6.70;;;2.30;;
45686;SDS011;31399;51.176;7.776;2023-04-24T14:31:04;3.95;;;1.92;;
45686;SDS011;31399;51.176;7.776;2023-04-24T14:33:31;4.93;;;1.88;;
45686;SDS011;31399;51.176;7.776;2023-04-24T14:35:58;5.82;;;2.22;;
45686;SDS011;31399;51.176;7.776;2023-04-24T14:38:24;3.00;;;1.77;;
45686;SDS011;31399;51.176;7.776;2023-04-24T14:40:51;5.78;;;2.20;;
45686;SDS011;31399;51.176;7.776;2023-04-24T14:43:31;6.57;;;2.07;;
45686;SDS011;31399;51.176;7.776;2023-04-24T14:45:58;3.75;;;2.58;;
45686;SDS011;31399;51.176;7.776;2023-04-24T14:48:25;5.88;;;2.47;;
45686;SDS011;31399;51.176;7.776;2023-04-24T14:50:52;5.05;;;2.17;;
45686;SDS011;31399;51.176;7.776;2023-04-24T14:53:18;3.85;;;1.98;;
45686;SDS011;31399;51.176;7.776;2023-04-24T14:55:45;4.30;;;2.08;;
45686;SDS011;31399;51.176;7.776;2023-04-24T14:58:12;5.75;;;2.55;;
45686;SDS011;31399;51.176;7.776;2023-04-24T15:00:38;5.05;;;2.17;;
45686;SDS011;31399;51.176;7.776;2023-04-24T15:03:05;6.30;;;2.33;;
45686;SDS011;31399;51.176;7.776;2023-04-24T15:05:32;3.35;;;2.13;;
45686;SDS011;31399;51.176;7.776;2023-04-24T15:08:00;4.50;;;2.20;;
45686;SDS011;31399;51.176;7.776;2023-04-24T15:10:26;5.10;;;2.30;;
45686;SDS011;31399;51.176;7.776;2023-04-24T15:12:55;7.70;;;1.98;;
45686;SDS011;31399;51.176;7.776;2023-04-24T15:15:22;3.28;;;1.50;;
45686;SDS011;31399;51.176;7.776;2023-04-24T15:17:48;3.28;;;1.73;;
45686;SDS011;31399;51.176;7.776;2023-04-24T15:20:15;3.90;;;1.75;;
45686;SDS011;31399;51.176;7.776;2023-04-24T15:22:42;4.93;;;1.55;;
45686;SDS011;31399;51.176;7.776;2023-04-24T15:25:09;5.07;;;1.80;;
45686;SDS011;31399;51.176;7.776;2023-04-24T15:27:43;3.17;;;1.02;;
45686;SDS011;31399;51.176;7.776;2023-04-24T15:30:11;4.15;;;1.48;;
45686;SDS011;31399;51.176;7.776;2023-04-24T15:32:38;6.30;;;1.67;;
45686;SDS011;31399;51.176;7.776;2023-04-24T15:35:05;3.90;;;1.30;;